Weather reports worldwide

Advertisment
Cartagena, Spain (8434): temperature & dewpoint: 16.01.2019 04:00:00 - 22.01.2019 04:00:00 (CET)Cartagena, Spain (8434): wind speed & gusts: 16.01.2019 04:00:00 - 22.01.2019 04:00:00 (CET)Cartagena, Spain (8434): wind direction: 16.01.2019 04:00:00 - 22.01.2019 04:00:00 (CET)Cartagena, Spain (8434): precipitation: 16.01.2019 04:00:00 - 22.01.2019 04:00:00 (CET)
Date & Time tt [°C] td [°C] ff [km/h] ff [kn] fx [km/h] fx [kn] dd rr [mm]
22.01.2019 04:00:00 - - - - - - - -
22.01.2019 03:00:00 9,2 -1,5 5 3 16 8 NW 0,0
22.01.2019 02:00:00 9,6 -1,1 8 5 16 9 NW 0,0
22.01.2019 01:00:00 9,9 -1,1 6 3 19 10 NW -
22.01.2019 00:00:00 10,3 -1,1 9 5 22 12 NW 0,0
21.01.2019 23:00:00 10,8 -0,9 9 5 29 16 WNW 0,0
21.01.2019 22:00:00 11,6 -0,2 10 5 22 12 WNW 0,0
21.01.2019 21:00:00 11,2 0,0 6 3 15 8 NW 0,0
21.01.2019 20:00:00 11,4 -0,1 6 4 18 10 NW 0,0
21.01.2019 19:00:00 12,1 -0,1 5 3 18 10 WNW -
21.01.2019 18:00:00 14,1 0,4 6 3 23 13 N 0,0
21.01.2019 17:00:00 15,3 1,1 8 4 22 12 N 0,0
21.01.2019 16:00:00 15,2 1,0 8 4 20 11 N 0,0
21.01.2019 15:00:00 15,0 1,5 7 4 20 11 NNW 0,0
21.01.2019 14:00:00 14,8 2,0 5 3 22 12 NNW 0,0
21.01.2019 13:00:00 13,4 1,7 9 5 26 14 NNW -
21.01.2019 12:00:00 12,9 2,5 7 4 27 15 NNW 0,0
21.01.2019 11:00:00 11,4 2,7 9 5 23 13 NW 0,0
21.01.2019 10:00:00 10,5 2,8 7 4 11 6 N 0,0
21.01.2019 09:00:00 7,9 1,7 4 2 14 8 N 0,0
21.01.2019 08:00:00 8,1 1,5 6 3 13 7 NW 0,0
21.01.2019 07:00:00 8,3 1,7 5 3 14 8 NNW -
21.01.2019 06:00:00 8,4 2,0 6 4 16 9 NNW 0,0
21.01.2019 05:00:00 8,3 2,1 4 2 14 8 NW 0,0
21.01.2019 04:00:00 8,9 2,3 6 4 14 7 NNW 0,0
21.01.2019 03:00:00 9,4 2,5 4 2 10 5 N 0,0
21.01.2019 02:00:00 9,7 2,8 4 2 10 6 N 0,0
21.01.2019 01:00:00 10,2 2,8 4 2 10 5 N -
21.01.2019 00:00:00 10,4 3,0 3 1 13 7 NNW 0,0
20.01.2019 23:00:00 11,0 3,3 6 4 15 8 NW 0,0
20.01.2019 22:00:00 11,1 4,3 7 4 14 8 NW 0,0
20.01.2019 21:00:00 11,4 8,1 3 1 7 4 NNW 0,0
20.01.2019 20:00:00 12,1 8,0 0 0 6 3 SSE 0,0
20.01.2019 19:00:00 13,1 7,6 3 2 13 7 NE -
20.01.2019 18:00:00 13,4 7,0 6 3 24 13 N 0,0
20.01.2019 17:00:00 13,6 6,5 9 5 25 13 NW 0,0
20.01.2019 16:00:00 13,7 7,3 11 6 29 16 NW 0,0
20.01.2019 15:00:00 13,9 9,6 3 2 19 10 N 0,2
20.01.2019 14:00:00 14,3 10,1 6 3 15 8 NNW 0,0
20.01.2019 13:00:00 14,0 10,0 2 1 5 3 ENE -
20.01.2019 12:00:00 12,8 10,2 2 1 5 3 NNE 0,0
20.01.2019 11:00:00 11,5 9,8 0 0 3 2 N 0,2
20.01.2019 10:00:00 10,7 9,1 1 0 6 3 N 0,1
20.01.2019 09:00:00 9,7 8,1 3 1 6 4 N 0,0
20.01.2019 08:00:00 10,1 8,2 0 0 4 2 ENE 0,0
20.01.2019 07:00:00 10,6 8,5 2 1 5 3 ENE -
20.01.2019 06:00:00 11,1 8,5 2 1 6 3 W 0,1
20.01.2019 05:00:00 12,3 8,8 2 1 6 3 WSW 0,1
20.01.2019 04:00:00 13,4 8,7 3 1 16 9 WSW 0,1
20.01.2019 03:00:00 13,8 8,2 4 2 15 8 SW 0,0
20.01.2019 02:00:00 14,0 7,5 5 3 15 8 SW 0,0
20.01.2019 01:00:00 13,6 8,7 2 1 11 6 SW -
20.01.2019 00:00:00 13,9 8,9 5 3 19 10 SW 0,0
19.01.2019 23:00:00 13,7 8,3 11 6 20 11 SW 0,0
19.01.2019 22:00:00 13,8 7,8 6 3 20 11 SSW 0,0
19.01.2019 21:00:00 13,9 8,1 9 5 17 9 SSW 0,0
19.01.2019 20:00:00 13,8 7,6 9 5 22 12 SSW 0,0
19.01.2019 19:00:00 13,6 7,4 9 5 22 12 SSW -
19.01.2019 18:00:00 13,5 7,1 9 5 24 13 SSW 0,0
19.01.2019 17:00:00 13,4 6,7 12 7 25 14 SSW 0,0
19.01.2019 16:00:00 13,9 5,3 12 7 23 13 SSW 0,0
19.01.2019 15:00:00 14,2 4,5 7 4 22 12 S 0,0
19.01.2019 14:00:00 13,9 3,1 9 5 16 9 SSW 0,0
19.01.2019 13:00:00 14,6 2,5 3 2 10 5 SE -
19.01.2019 12:00:00 13,2 2,5 3 2 11 6 NW 0,0
19.01.2019 11:00:00 12,0 2,5 3 2 10 5 N 0,0
19.01.2019 10:00:00 11,2 2,5 1 1 7 4 N 0,0
19.01.2019 09:00:00 9,2 1,9 2 1 12 6 NNE 0,0
19.01.2019 08:00:00 9,0 1,7 5 3 14 7 NNW 0,0
19.01.2019 07:00:00 9,3 1,7 5 3 12 6 NW -
19.01.2019 06:00:00 9,6 2,7 3 2 6 4 N 0,0
19.01.2019 05:00:00 10,1 2,7 4 2 13 7 NNW 0,0
19.01.2019 04:00:00 10,2 3,7 8 4 14 7 NNW 0,0
19.01.2019 03:00:00 10,7 5,1 4 2 6 4 N 0,0
19.01.2019 02:00:00 10,9 5,5 3 2 10 6 NNE 0,0
19.01.2019 01:00:00 11,2 6,6 4 2 9 5 NNE -
19.01.2019 00:00:00 11,6 6,7 1 0 9 5 NE 0,0
18.01.2019 23:00:00 12,5 7,2 3 2 7 4 NNW 0,0
18.01.2019 22:00:00 13,1 7,6 1 1 13 7 SW 0,0
18.01.2019 21:00:00 13,1 7,8 6 4 13 7 SW 0,0
18.01.2019 20:00:00 13,1 8,2 6 3 14 8 SSW 0,0
18.01.2019 19:00:00 13,0 7,9 5 3 12 7 SSW -
18.01.2019 18:00:00 12,9 7,6 6 3 13 7 S 0,0
18.01.2019 17:00:00 13,3 7,1 6 4 14 7 S 0,0
18.01.2019 16:00:00 13,7 6,8 5 3 16 9 SSW 0,0
18.01.2019 15:00:00 13,7 6,6 7 4 13 7 S 0,0
18.01.2019 14:00:00 14,9 5,2 3 1 8 4 S 0,0
18.01.2019 13:00:00 14,5 4,5 3 2 10 6 NE -
18.01.2019 12:00:00 13,5 3,9 3 2 9 5 N 0,0
18.01.2019 11:00:00 11,4 4,2 2 1 6 4 NE 0,0
18.01.2019 10:00:00 9,1 3,5 2 1 7 4 NE 0,0
18.01.2019 09:00:00 7,3 2,8 2 1 6 3 NNE 0,0
18.01.2019 08:00:00 7,6 2,9 3 2 8 4 NE 0,0
18.01.2019 07:00:00 7,8 3,1 4 2 9 5 NE -
18.01.2019 06:00:00 7,6 3,1 3 2 9 5 N 0,0
18.01.2019 05:00:00 8,2 3,5 4 2 9 5 N 0,0
18.01.2019 04:00:00 8,5 3,6 2 1 6 4 N 0,0
18.01.2019 03:00:00 8,5 3,8 3 2 11 6 N 0,0
18.01.2019 02:00:00 9,8 4,6 5 3 10 5 NNE 0,0
18.01.2019 01:00:00 9,4 5,6 4 2 7 4 NNE -
18.01.2019 00:00:00 9,9 5,7 1 1 6 3 NNW 0,0
17.01.2019 23:00:00 10,7 5,7 1 1 5 3 NNE 0,0
17.01.2019 22:00:00 11,5 6,0 1 0 8 4 E 0,0
17.01.2019 21:00:00 12,2 6,1 0 0 6 3 N 0,0
17.01.2019 20:00:00 12,5 5,2 3 1 6 3 SW 0,0
17.01.2019 19:00:00 13,0 3,9 3 2 7 4 SW -
17.01.2019 18:00:00 14,0 3,8 1 0 3 2 S 0,0
17.01.2019 17:00:00 14,5 4,2 2 1 10 5 NNE 0,0
17.01.2019 16:00:00 14,6 4,3 4 2 12 7 NNE 0,0
17.01.2019 15:00:00 15,0 5,0 3 1 11 6 NE 0,0
17.01.2019 14:00:00 14,8 5,1 4 2 11 6 NW 0,0
17.01.2019 13:00:00 14,6 5,1 4 2 15 8 N -
17.01.2019 12:00:00 12,9 5,3 5 3 16 8 NW 0,0
17.01.2019 11:00:00 11,8 5,9 3 2 10 5 NNE 0,0
17.01.2019 10:00:00 9,3 5,5 2 1 7 4 NE 0,0
17.01.2019 09:00:00 8,7 5,3 4 2 8 4 NE 0,0
17.01.2019 08:00:00 8,5 5,1 4 2 10 5 NE 0,0
17.01.2019 07:00:00 7,6 5,2 0 0 5 3 N -
17.01.2019 06:00:00 8,2 6,0 0 0 6 3 NE 0,0
17.01.2019 05:00:00 7,8 5,9 1 1 5 3 NE 0,0
17.01.2019 04:00:00 8,5 6,6 3 2 8 4 ENE 0,0
17.01.2019 03:00:00 8,9 7,2 0 0 3 2 NNE 0,0
17.01.2019 02:00:00 9,4 7,4 1 1 5 3 NNE 0,0
17.01.2019 01:00:00 9,7 7,5 1 1 5 3 NE -
17.01.2019 00:00:00 10,4 7,8 1 1 8 5 ENE 0,0
16.01.2019 23:00:00 11,6 8,5 2 1 10 5 NNE 0,0
16.01.2019 22:00:00 13,5 10,1 4 2 17 9 WSW 0,0
16.01.2019 21:00:00 13,6 9,8 6 4 21 11 SSW 0,0
16.01.2019 20:00:00 13,6 9,7 8 4 22 12 SSW 0,0
16.01.2019 19:00:00 13,7 9,7 9 5 17 9 SSW -
16.01.2019 18:00:00 13,6 9,3 9 5 16 8 S 0,0
16.01.2019 17:00:00 14,2 9,2 7 4 16 9 SSW 0,0
16.01.2019 16:00:00 14,6 9,4 7 4 17 9 S 0,0
16.01.2019 15:00:00 14,6 9,2 7 4 15 8 S 0,0
16.01.2019 14:00:00 15,2 9,3 6 3 15 8 S 0,0
16.01.2019 13:00:00 14,6 9,2 0 0 5 3 S -
16.01.2019 12:00:00 13,5 9,2 0 0 0 0 N 0,0
16.01.2019 11:00:00 11,6 8,8 0 0 0 0 N 0,0
16.01.2019 10:00:00 8,1 7,2 0 0 0 0 N 0,0
16.01.2019 09:00:00 6,3 5,4 0 0 0 0 N 0,0
16.01.2019 08:00:00 6,2 5,3 0 0 0 0 N 0,0
16.01.2019 07:00:00 6,1 5,1 0 0 3 1 N -
16.01.2019 06:00:00 6,1 5,1 0 0 2 1 N 0,0
16.01.2019 05:00:00 6,7 5,5 0 0 3 1 WNW 0,0
16.01.2019 04:00:00 7,3 6,1 1 1 4 2 NNE 0,0

tt = temperature
td = dewpoint
ff = wind speed
fx = gusts
dd = wind direction
rr = precipitation

Next stations